sensor_id;sensor_type;location;lat;lon;timestamp;temperature;humidity
60909;DHT22;46780;48.128;-1.704;2023-08-21T00:02:12;20.10;96.20
60909;DHT22;46780;48.128;-1.704;2023-08-21T00:04:39;20.10;96.10
60909;DHT22;46780;48.128;-1.704;2023-08-21T00:07:05;20.10;96.20
60909;DHT22;46780;48.128;-1.704;2023-08-21T00:09:32;20.10;96.30
60909;DHT22;46780;48.128;-1.704;2023-08-21T00:12:00;20.20;96.40
60909;DHT22;46780;48.128;-1.704;2023-08-21T00:14:26;20.20;96.60
60909;DHT22;46780;48.128;-1.704;2023-08-21T00:16:52;20.20;96.60
60909;DHT22;46780;48.128;-1.704;2023-08-21T00:19:19;20.20;96.60
60909;DHT22;46780;48.128;-1.704;2023-08-21T00:21:45;20.20;96.70
60909;DHT22;46780;48.128;-1.704;2023-08-21T00:24:12;20.20;96.70
60909;DHT22;46780;48.128;-1.704;2023-08-21T00:26:38;20.20;96.80
60909;DHT22;46780;48.128;-1.704;2023-08-21T00:29:06;20.10;96.80
60909;DHT22;46780;48.128;-1.704;2023-08-21T00:31:32;20.10;97.00
60909;DHT22;46780;48.128;-1.704;2023-08-21T00:33:59;20.10;96.80
60909;DHT22;46780;48.128;-1.704;2023-08-21T00:36:25;20.10;96.90
60909;DHT22;46780;48.128;-1.704;2023-08-21T00:38:52;20.10;96.90
60909;DHT22;46780;48.128;-1.704;2023-08-21T00:41:18;20.00;96.90
60909;DHT22;46780;48.128;-1.704;2023-08-21T00:43:45;20.00;97.00
60909;DHT22;46780;48.128;-1.704;2023-08-21T00:46:13;20.00;97.10
60909;DHT22;46780;48.128;-1.704;2023-08-21T00:48:39;19.90;97.10
60909;DHT22;46780;48.128;-1.704;2023-08-21T00:51:06;19.90;97.40
60909;DHT22;46780;48.128;-1.704;2023-08-21T00:53:33;19.80;97.50
60909;DHT22;46780;48.128;-1.704;2023-08-21T00:56:00;19.80;97.70
60909;DHT22;46780;48.128;-1.704;2023-08-21T00:58:27;19.80;97.90
60909;DHT22;46780;48.128;-1.704;2023-08-21T01:00:53;19.70;97.90
60909;DHT22;46780;48.128;-1.704;2023-08-21T01:03:21;19.70;98.00
60909;DHT22;46780;48.128;-1.704;2023-08-21T01:05:48;19.70;98.10
60909;DHT22;46780;48.128;-1.704;2023-08-21T01:08:19;19.70;98.00
60909;DHT22;46780;48.128;-1.704;2023-08-21T01:10:53;19.70;98.00
60909;DHT22;46780;48.128;-1.704;2023-08-21T01:13:33;19.70;98.20
60909;DHT22;46780;48.128;-1.704;2023-08-21T01:16:01;19.60;98.30
60909;DHT22;46780;48.128;-1.704;2023-08-21T01:18:31;19.60;98.40
60909;DHT22;46780;48.128;-1.704;2023-08-21T01:20:59;19.60;98.60
60909;DHT22;46780;48.128;-1.704;2023-08-21T01:23:32;19.60;98.60
60909;DHT22;46780;48.128;-1.704;2023-08-21T01:25:58;19.60;98.60
60909;DHT22;46780;48.128;-1.704;2023-08-21T01:28:25;19.50;98.60
60909;DHT22;46780;48.128;-1.704;2023-08-21T01:30:57;19.50;98.90
60909;DHT22;46780;48.128;-1.704;2023-08-21T01:33:26;19.40;99.20
60909;DHT22;46780;48.128;-1.704;2023-08-21T01:35:52;19.40;99.50
60909;DHT22;46780;48.128;-1.704;2023-08-21T01:38:19;19.40;99.60
60909;DHT22;46780;48.128;-1.704;2023-08-21T01:40:48;19.40;99.80
60909;DHT22;46780;48.128;-1.704;2023-08-21T01:43:14;19.40;99.90
60909;DHT22;46780;48.128;-1.704;2023-08-21T01:45:41;19.40;99.90
60909;DHT22;46780;48.128;-1.704;2023-08-21T01:48:07;19.40;99.90
60909;DHT22;46780;48.128;-1.704;2023-08-21T01:50:34;19.40;99.90
60909;DHT22;46780;48.128;-1.704;2023-08-21T01:53:01;19.30;99.90
60909;DHT22;46780;48.128;-1.704;2023-08-21T01:55:27;19.30;99.90
60909;DHT22;46780;48.128;-1.704;2023-08-21T01:57:55;19.30;99.90
60909;DHT22;46780;48.128;-1.704;2023-08-21T02:00:21;19.30;99.90
60909;DHT22;46780;48.128;-1.704;2023-08-21T02:02:48;19.30;99.90
60909;DHT22;46780;48.128;-1.704;2023-08-21T02:05:14;19.30;99.90
60909;DHT22;46780;48.128;-1.704;2023-08-21T02:07:41;19.30;99.90
60909;DHT22;46780;48.128;-1.704;2023-08-21T02:10:08;19.30;99.90
60909;DHT22;46780;48.128;-1.704;2023-08-21T02:12:34;19.30;99.90
60909;DHT22;46780;48.128;-1.704;2023-08-21T02:15:03;19.30;99.90
60909;DHT22;46780;48.128;-1.704;2023-08-21T02:17:30;19.30;99.90
60909;DHT22;46780;48.128;-1.704;2023-08-21T02:19:56;19.30;99.90
60909;DHT22;46780;48.128;-1.704;2023-08-21T02:22:23;19.30;99.90
60909;DHT22;46780;48.128;-1.704;2023-08-21T02:24:49;19.30;99.90
60909;DHT22;46780;48.128;-1.704;2023-08-21T02:27:15;19.30;99.90
60909;DHT22;46780;48.128;-1.704;2023-08-21T02:29:42;19.20;99.90
60909;DHT22;46780;48.128;-1.704;2023-08-21T02:32:10;19.20;99.90
60909;DHT22;46780;48.128;-1.704;2023-08-21T02:34:36;19.20;99.90
60909;DHT22;46780;48.128;-1.704;2023-08-21T02:37:02;19.20;99.90
60909;DHT22;46780;48.128;-1.704;2023-08-21T02:39:29;19.20;99.90
60909;DHT22;46780;48.128;-1.704;2023-08-21T02:41:55;19.10;99.90
60909;DHT22;46780;48.128;-1.704;2023-08-21T02:44:22;19.10;99.90
60909;DHT22;46780;48.128;-1.704;2023-08-21T02:46:48;19.10;99.90
60909;DHT22;46780;48.128;-1.704;2023-08-21T02:49:16;19.10;99.90
60909;DHT22;46780;48.128;-1.704;2023-08-21T02:51:42;19.00;99.90
60909;DHT22;46780;48.128;-1.704;2023-08-21T02:54:09;19.00;99.90
60909;DHT22;46780;48.128;-1.704;2023-08-21T02:56:35;19.00;99.90
60909;DHT22;46780;48.128;-1.704;2023-08-21T02:59:02;19.00;99.90
60909;DHT22;46780;48.128;-1.704;2023-08-21T03:01:28;19.00;99.90
60909;DHT22;46780;48.128;-1.704;2023-08-21T03:03:54;19.00;99.90
60909;DHT22;46780;48.128;-1.704;2023-08-21T03:06:22;19.00;99.90
60909;DHT22;46780;48.128;-1.704;2023-08-21T03:08:49;19.00;99.90
60909;DHT22;46780;48.128;-1.704;2023-08-21T03:11:15;19.00;99.90
60909;DHT22;46780;48.128;-1.704;2023-08-21T03:13:42;19.00;99.90
60909;DHT22;46780;48.128;-1.704;2023-08-21T03:16:08;19.00;99.90
60909;DHT22;46780;48.128;-1.704;2023-08-21T03:18:54;19.00;99.90
60909;DHT22;46780;48.128;-1.704;2023-08-21T03:21:22;19.00;99.90
60909;DHT22;46780;48.128;-1.704;2023-08-21T03:23:50;18.90;99.90
60909;DHT22;46780;48.128;-1.704;2023-08-21T03:26:16;18.90;99.90
60909;DHT22;46780;48.128;-1.704;2023-08-21T03:28:43;18.90;99.90
60909;DHT22;46780;48.128;-1.704;2023-08-21T03:31:09;18.90;99.90
60909;DHT22;46780;48.128;-1.704;2023-08-21T03:33:36;19.00;99.90
60909;DHT22;46780;48.128;-1.704;2023-08-21T03:36:03;19.00;99.90
60909;DHT22;46780;48.128;-1.704;2023-08-21T03:38:31;19.00;99.90
60909;DHT22;46780;48.128;-1.704;2023-08-21T03:40:57;19.10;99.90
60909;DHT22;46780;48.128;-1.704;2023-08-21T03:43:24;19.20;99.90
60909;DHT22;46780;48.128;-1.704;2023-08-21T03:45:50;19.20;99.90
60909;DHT22;46780;48.128;-1.704;2023-08-21T03:48:17;19.30;99.90
60909;DHT22;46780;48.128;-1.704;2023-08-21T03:50:43;19.30;99.90
60909;DHT22;46780;48.128;-1.704;2023-08-21T03:53:10;19.40;99.90
60909;DHT22;46780;48.128;-1.704;2023-08-21T03:55:37;19.40;99.90
60909;DHT22;46780;48.128;-1.704;2023-08-21T03:58:04;19.40;99.90
60909;DHT22;46780;48.128;-1.704;2023-08-21T04:00:30;19.40;99.90
60909;DHT22;46780;48.128;-1.704;2023-08-21T04:02:57;19.40;99.90
60909;DHT22;46780;48.128;-1.704;2023-08-21T04:05:24;19.40;99.90
60909;DHT22;46780;48.128;-1.704;2023-08-21T04:07:50;19.40;99.90
60909;DHT22;46780;48.128;-1.704;2023-08-21T04:10:17;19.40;99.90
60909;DHT22;46780;48.128;-1.704;2023-08-21T04:12:45;19.30;99.90
60909;DHT22;46780;48.128;-1.704;2023-08-21T04:15:11;19.30;99.90
60909;DHT22;46780;48.128;-1.704;2023-08-21T04:17:38;19.30;99.90
60909;DHT22;46780;48.128;-1.704;2023-08-21T04:20:05;19.20;99.90
60909;DHT22;46780;48.128;-1.704;2023-08-21T04:22:32;19.20;99.90
60909;DHT22;46780;48.128;-1.704;2023-08-21T04:25:00;19.20;99.90
60909;DHT22;46780;48.128;-1.704;2023-08-21T04:27:26;19.20;99.90
60909;DHT22;46780;48.128;-1.704;2023-08-21T04:29:54;19.20;99.90
60909;DHT22;46780;48.128;-1.704;2023-08-21T04:32:21;19.20;99.90
60909;DHT22;46780;48.128;-1.704;2023-08-21T04:34:47;19.20;99.90
60909;DHT22;46780;48.128;-1.704;2023-08-21T04:37:13;19.20;99.90
60909;DHT22;46780;48.128;-1.704;2023-08-21T04:39:40;19.20;99.90
60909;DHT22;46780;48.128;-1.704;2023-08-21T04:42:06;19.20;99.90
60909;DHT22;46780;48.128;-1.704;2023-08-21T04:44:33;19.20;99.90
60909;DHT22;46780;48.128;-1.704;2023-08-21T04:47:19;19.20;99.90
60909;DHT22;46780;48.128;-1.704;2023-08-21T04:49:45;19.10;99.90
60909;DHT22;46780;48.128;-1.704;2023-08-21T04:52:12;19.10;99.90
60909;DHT22;46780;48.128;-1.704;2023-08-21T04:54:38;19.00;99.90
60909;DHT22;46780;48.128;-1.704;2023-08-21T04:57:05;19.00;99.90
60909;DHT22;46780;48.128;-1.704;2023-08-21T04:59:31;19.00;99.90
60909;DHT22;46780;48.128;-1.704;2023-08-21T05:01:57;19.00;99.90
60909;DHT22;46780;48.128;-1.704;2023-08-21T05:04:25;19.00;99.90
60909;DHT22;46780;48.128;-1.704;2023-08-21T05:06:52;19.00;99.90
60909;DHT22;46780;48.128;-1.704;2023-08-21T05:09:18;19.00;99.90
60909;DHT22;46780;48.128;-1.704;2023-08-21T05:11:45;19.00;99.90
60909;DHT22;46780;48.128;-1.704;2023-08-21T05:14:11;18.90;99.90
60909;DHT22;46780;48.128;-1.704;2023-08-21T05:16:38;18.90;99.90
60909;DHT22;46780;48.128;-1.704;2023-08-21T05:19:04;18.90;99.90
60909;DHT22;46780;48.128;-1.704;2023-08-21T05:21:32;18.80;99.90
60909;DHT22;46780;48.128;-1.704;2023-08-21T05:23:58;18.70;99.90
60909;DHT22;46780;48.128;-1.704;2023-08-21T05:26:25;18.70;99.90
60909;DHT22;46780;48.128;-1.704;2023-08-21T05:28:51;18.60;99.90
60909;DHT22;46780;48.128;-1.704;2023-08-21T05:31:17;18.60;99.90
60909;DHT22;46780;48.128;-1.704;2023-08-21T05:33:44;18.60;99.90
60909;DHT22;46780;48.128;-1.704;2023-08-21T05:36:10;18.60;99.90
60909;DHT22;46780;48.128;-1.704;2023-08-21T05:38:38;18.60;99.90
60909;DHT22;46780;48.128;-1.704;2023-08-21T05:41:04;18.60;99.90
60909;DHT22;46780;48.128;-1.704;2023-08-21T05:43:31;18.60;99.90
60909;DHT22;46780;48.128;-1.704;2023-08-21T05:45:57;18.60;99.90
60909;DHT22;46780;48.128;-1.704;2023-08-21T05:48:24;18.60;99.90
60909;DHT22;46780;48.128;-1.704;2023-08-21T05:50:51;18.70;99.90
60909;DHT22;46780;48.128;-1.704;2023-08-21T05:53:17;18.70;99.90
60909;DHT22;46780;48.128;-1.704;2023-08-21T05:55:45;18.70;99.90
60909;DHT22;46780;48.128;-1.704;2023-08-21T05:58:11;18.70;99.90
60909;DHT22;46780;48.128;-1.704;2023-08-21T06:00:39;18.70;99.90
60909;DHT22;46780;48.128;-1.704;2023-08-21T06:03:05;18.80;99.90
60909;DHT22;46780;48.128;-1.704;2023-08-21T06:05:31;18.80;99.90
60909;DHT22;46780;48.128;-1.704;2023-08-21T06:07:58;18.90;99.90
60909;DHT22;46780;48.128;-1.704;2023-08-21T06:10:24;18.90;99.90
60909;DHT22;46780;48.128;-1.704;2023-08-21T06:12:52;18.90;99.90
60909;DHT22;46780;48.128;-1.704;2023-08-21T06:15:19;19.00;99.90
60909;DHT22;46780;48.128;-1.704;2023-08-21T06:17:45;19.00;99.90
60909;DHT22;46780;48.128;-1.704;2023-08-21T06:20:12;19.00;99.90
60909;DHT22;46780;48.128;-1.704;2023-08-21T06:22:38;19.10;99.90
60909;DHT22;46780;48.128;-1.704;2023-08-21T06:25:05;19.10;99.90
60909;DHT22;46780;48.128;-1.704;2023-08-21T06:27:31;19.20;99.90
60909;DHT22;46780;48.128;-1.704;2023-08-21T06:29:59;19.30;99.90
60909;DHT22;46780;48.128;-1.704;2023-08-21T06:32:26;19.30;99.90
60909;DHT22;46780;48.128;-1.704;2023-08-21T06:34:52;19.30;99.90
60909;DHT22;46780;48.128;-1.704;2023-08-21T06:37:18;19.40;99.90
60909;DHT22;46780;48.128;-1.704;2023-08-21T06:39:45;19.40;99.90
60909;DHT22;46780;48.128;-1.704;2023-08-21T06:42:11;19.40;99.90
60909;DHT22;46780;48.128;-1.704;2023-08-21T06:44:38;19.50;99.90
60909;DHT22;46780;48.128;-1.704;2023-08-21T06:47:06;19.50;99.90
60909;DHT22;46780;48.128;-1.704;2023-08-21T06:49:32;19.60;99.90
60909;DHT22;46780;48.128;-1.704;2023-08-21T06:51:58;19.70;99.90
60909;DHT22;46780;48.128;-1.704;2023-08-21T06:54:25;19.70;99.90
60909;DHT22;46780;48.128;-1.704;2023-08-21T06:56:51;19.80;99.90
60909;DHT22;46780;48.128;-1.704;2023-08-21T06:59:18;19.80;99.90
60909;DHT22;46780;48.128;-1.704;2023-08-21T07:01:44;19.90;99.90
60909;DHT22;46780;48.128;-1.704;2023-08-21T07:04:12;19.90;99.90
60909;DHT22;46780;48.128;-1.704;2023-08-21T07:06:38;20.00;99.90
60909;DHT22;46780;48.128;-1.704;2023-08-21T07:09:05;20.00;99.90
60909;DHT22;46780;48.128;-1.704;2023-08-21T07:11:31;20.10;99.90
60909;DHT22;46780;48.128;-1.704;2023-08-21T07:13:58;20.10;99.90
60909;DHT22;46780;48.128;-1.704;2023-08-21T07:16:24;20.20;99.90
60909;DHT22;46780;48.128;-1.704;2023-08-21T07:18:51;20.30;99.90
60909;DHT22;46780;48.128;-1.704;2023-08-21T07:21:18;20.40;99.90
60909;DHT22;46780;48.128;-1.704;2023-08-21T07:23:45;20.50;99.90
60909;DHT22;46780;48.128;-1.704;2023-08-21T07:26:11;20.60;99.90
60909;DHT22;46780;48.128;-1.704;2023-08-21T07:28:38;20.70;99.90
60909;DHT22;46780;48.128;-1.704;2023-08-21T07:31:04;20.80;99.90
60909;DHT22;46780;48.128;-1.704;2023-08-21T07:33:31;20.90;99.90
60909;DHT22;46780;48.128;-1.704;2023-08-21T07:35:58;21.00;99.90
60909;DHT22;46780;48.128;-1.704;2023-08-21T07:38:26;21.10;99.90
60909;DHT22;46780;48.128;-1.704;2023-08-21T07:41:02;21.20;99.90
60909;DHT22;46780;48.128;-1.704;2023-08-21T07:43:29;21.30;99.90
60909;DHT22;46780;48.128;-1.704;2023-08-21T07:45:55;21.40;99.90
60909;DHT22;46780;48.128;-1.704;2023-08-21T07:48:21;21.60;99.90
60909;DHT22;46780;48.128;-1.704;2023-08-21T07:50:51;21.70;99.90
60909;DHT22;46780;48.128;-1.704;2023-08-21T07:53:17;21.80;99.90
60909;DHT22;46780;48.128;-1.704;2023-08-21T07:55:45;21.90;99.90
60909;DHT22;46780;48.128;-1.704;2023-08-21T07:58:12;22.00;99.90
60909;DHT22;46780;48.128;-1.704;2023-08-21T08:00:38;22.10;99.60
60909;DHT22;46780;48.128;-1.704;2023-08-21T08:03:04;22.20;99.30
60909;DHT22;46780;48.128;-1.704;2023-08-21T08:05:31;22.30;99.00
60909;DHT22;46780;48.128;-1.704;2023-08-21T08:07:58;22.40;98.60
60909;DHT22;46780;48.128;-1.704;2023-08-21T08:10:24;22.60;97.80
60909;DHT22;46780;48.128;-1.704;2023-08-21T08:12:52;22.70;97.10
60909;DHT22;46780;48.128;-1.704;2023-08-21T08:15:19;22.90;96.70
60909;DHT22;46780;48.128;-1.704;2023-08-21T08:17:45;23.00;96.20
60909;DHT22;46780;48.128;-1.704;2023-08-21T08:20:12;23.20;95.60
60909;DHT22;46780;48.128;-1.704;2023-08-21T08:22:39;23.30;95.00
60909;DHT22;46780;48.128;-1.704;2023-08-21T08:25:06;23.40;94.70
60909;DHT22;46780;48.128;-1.704;2023-08-21T08:27:33;23.50;94.40
60909;DHT22;46780;48.128;-1.704;2023-08-21T08:30:00;23.70;93.50
60909;DHT22;46780;48.128;-1.704;2023-08-21T08:32:27;23.80;93.00
60909;DHT22;46780;48.128;-1.704;2023-08-21T08:34:53;24.00;92.50
60909;DHT22;46780;48.128;-1.704;2023-08-21T08:37:20;24.10;91.60
60909;DHT22;46780;48.128;-1.704;2023-08-21T08:39:47;24.40;91.10
60909;DHT22;46780;48.128;-1.704;2023-08-21T08:42:14;24.90;90.40
60909;DHT22;46780;48.128;-1.704;2023-08-21T08:44:42;25.40;86.50
60909;DHT22;46780;48.128;-1.704;2023-08-21T08:47:11;26.10;84.60
60909;DHT22;46780;48.128;-1.704;2023-08-21T08:49:38;27.50;79.00
60909;DHT22;46780;48.128;-1.704;2023-08-21T08:52:04;29.10;68.20
60909;DHT22;46780;48.128;-1.704;2023-08-21T08:54:31;31.00;56.90
60909;DHT22;46780;48.128;-1.704;2023-08-21T08:56:58;32.90;48.20
60909;DHT22;46780;48.128;-1.704;2023-08-21T08:59:25;34.60;41.40
60909;DHT22;46780;48.128;-1.704;2023-08-21T09:01:51;35.70;37.10
60909;DHT22;46780;48.128;-1.704;2023-08-21T09:04:19;36.80;34.60
60909;DHT22;46780;48.128;-1.704;2023-08-21T09:06:47;37.90;31.50
60909;DHT22;46780;48.128;-1.704;2023-08-21T09:09:14;38.70;29.90
60909;DHT22;46780;48.128;-1.704;2023-08-21T09:11:43;39.30;29.00
60909;DHT22;46780;48.128;-1.704;2023-08-21T09:14:10;40.10;27.30
60909;DHT22;46780;48.128;-1.704;2023-08-21T09:16:37;40.50;26.00
60909;DHT22;46780;48.128;-1.704;2023-08-21T09:19:03;40.90;25.50
60909;DHT22;46780;48.128;-1.704;2023-08-21T09:21:31;41.60;24.70
60909;DHT22;46780;48.128;-1.704;2023-08-21T09:23:59;42.00;24.30
60909;DHT22;46780;48.128;-1.704;2023-08-21T09:26:26;42.60;23.40
60909;DHT22;46780;48.128;-1.704;2023-08-21T09:28:53;42.90;23.00
60909;DHT22;46780;48.128;-1.704;2023-08-21T09:31:23;43.30;22.50
60909;DHT22;46780;48.128;-1.704;2023-08-21T09:33:54;43.80;22.00
60909;DHT22;46780;48.128;-1.704;2023-08-21T09:36:21;44.30;21.70
60909;DHT22;46780;48.128;-1.704;2023-08-21T09:38:50;44.20;21.20
60909;DHT22;46780;48.128;-1.704;2023-08-21T09:41:19;44.40;20.80
60909;DHT22;46780;48.128;-1.704;2023-08-21T09:43:46;44.90;20.50
60909;DHT22;46780;48.128;-1.704;2023-08-21T09:46:14;45.20;19.90
60909;DHT22;46780;48.128;-1.704;2023-08-21T09:48:41;45.50;19.60
60909;DHT22;46780;48.128;-1.704;2023-08-21T09:51:08;45.80;19.40
60909;DHT22;46780;48.128;-1.704;2023-08-21T09:53:35;45.80;18.90
60909;DHT22;46780;48.128;-1.704;2023-08-21T09:56:03;46.20;18.90
60909;DHT22;46780;48.128;-1.704;2023-08-21T09:58:29;46.50;18.50
60909;DHT22;46780;48.128;-1.704;2023-08-21T10:00:57;46.90;18.30
60909;DHT22;46780;48.128;-1.704;2023-08-21T10:03:24;47.30;18.00
60909;DHT22;46780;48.128;-1.704;2023-08-21T10:05:51;47.40;17.70
60909;DHT22;46780;48.128;-1.704;2023-08-21T10:08:24;47.30;17.70
60909;DHT22;46780;48.128;-1.704;2023-08-21T10:10:51;47.30;17.90
60909;DHT22;46780;48.128;-1.704;2023-08-21T10:13:19;47.90;17.60
60909;DHT22;46780;48.128;-1.704;2023-08-21T10:15:46;48.30;17.30
60909;DHT22;46780;48.128;-1.704;2023-08-21T10:18:20;48.30;17.20
60909;DHT22;46780;48.128;-1.704;2023-08-21T10:20:47;48.20;17.20
60909;DHT22;46780;48.128;-1.704;2023-08-21T10:23:24;48.50;16.80
60909;DHT22;46780;48.128;-1.704;2023-08-21T10:25:54;48.90;16.50
60909;DHT22;46780;48.128;-1.704;2023-08-21T10:28:22;49.40;16.20
60909;DHT22;46780;48.128;-1.704;2023-08-21T10:30:49;49.60;16.20
60909;DHT22;46780;48.128;-1.704;2023-08-21T10:33:15;49.40;16.30
60909;DHT22;46780;48.128;-1.704;2023-08-21T10:35:42;49.80;16.00
60909;DHT22;46780;48.128;-1.704;2023-08-21T10:38:10;50.30;15.60
60909;DHT22;46780;48.128;-1.704;2023-08-21T10:40:38;50.50;15.10
60909;DHT22;46780;48.128;-1.704;2023-08-21T10:43:05;50.30;15.10
60909;DHT22;46780;48.128;-1.704;2023-08-21T10:45:56;50.30;14.70
60909;DHT22;46780;48.128;-1.704;2023-08-21T10:48:22;50.50;14.70
60909;DHT22;46780;48.128;-1.704;2023-08-21T10:50:49;51.00;14.60
60909;DHT22;46780;48.128;-1.704;2023-08-21T10:53:16;51.40;14.30
60909;DHT22;46780;48.128;-1.704;2023-08-21T10:55:42;51.50;13.70
60909;DHT22;46780;48.128;-1.704;2023-08-21T10:58:09;51.00;13.60
60909;DHT22;46780;48.128;-1.704;2023-08-21T11:00:35;51.00;13.60
60909;DHT22;46780;48.128;-1.704;2023-08-21T11:03:03;51.20;13.40
60909;DHT22;46780;48.128;-1.704;2023-08-21T11:05:30;51.10;13.40
60909;DHT22;46780;48.128;-1.704;2023-08-21T11:07:57;51.30;13.40
60909;DHT22;46780;48.128;-1.704;2023-08-21T11:10:24;51.30;13.20
60909;DHT22;46780;48.128;-1.704;2023-08-21T11:12:52;51.70;13.10
60909;DHT22;46780;48.128;-1.704;2023-08-21T11:15:19;51.70;12.90
60909;DHT22;46780;48.128;-1.704;2023-08-21T11:17:54;51.80;13.00
60909;DHT22;46780;48.128;-1.704;2023-08-21T11:20:22;52.00;13.00
60909;DHT22;46780;48.128;-1.704;2023-08-21T11:22:48;52.10;12.80
60909;DHT22;46780;48.128;-1.704;2023-08-21T11:25:15;52.20;12.80
60909;DHT22;46780;48.128;-1.704;2023-08-21T11:27:42;52.40;12.80
60909;DHT22;46780;48.128;-1.704;2023-08-21T11:30:11;52.40;12.90
60909;DHT22;46780;48.128;-1.704;2023-08-21T11:32:37;52.40;12.70
60909;DHT22;46780;48.128;-1.704;2023-08-21T11:35:05;51.80;12.90
60909;DHT22;46780;48.128;-1.704;2023-08-21T11:37:32;51.30;13.50
60909;DHT22;46780;48.128;-1.704;2023-08-21T11:39:59;51.00;13.30
60909;DHT22;46780;48.128;-1.704;2023-08-21T11:42:29;50.80;13.20
60909;DHT22;46780;48.128;-1.704;2023-08-21T11:44:56;50.60;13.10
60909;DHT22;46780;48.128;-1.704;2023-08-21T11:47:23;50.60;13.30
60909;DHT22;46780;48.128;-1.704;2023-08-21T11:49:50;50.50;13.70
60909;DHT22;46780;48.128;-1.704;2023-08-21T11:52:19;50.70;13.30
60909;DHT22;46780;48.128;-1.704;2023-08-21T11:54:48;50.20;13.50
60909;DHT22;46780;48.128;-1.704;2023-08-21T11:57:15;49.90;13.70
60909;DHT22;46780;48.128;-1.704;2023-08-21T11:59:41;49.90;13.80
60909;DHT22;46780;48.128;-1.704;2023-08-21T12:02:10;50.20;13.80
60909;DHT22;46780;48.128;-1.704;2023-08-21T12:04:36;50.60;13.60
60909;DHT22;46780;48.128;-1.704;2023-08-21T12:07:03;50.80;13.40
60909;DHT22;46780;48.128;-1.704;2023-08-21T12:09:29;50.50;13.00
60909;DHT22;46780;48.128;-1.704;2023-08-21T12:11:58;49.50;13.50
60909;DHT22;46780;48.128;-1.704;2023-08-21T12:14:24;48.90;13.80
60909;DHT22;46780;48.128;-1.704;2023-08-21T12:16:51;48.90;14.10
60909;DHT22;46780;48.128;-1.704;2023-08-21T12:19:17;49.10;14.20
60909;DHT22;46780;48.128;-1.704;2023-08-21T12:21:44;48.70;14.40
60909;DHT22;46780;48.128;-1.704;2023-08-21T12:24:10;48.30;14.50
60909;DHT22;46780;48.128;-1.704;2023-08-21T12:26:37;47.60;15.40
60909;DHT22;46780;48.128;-1.704;2023-08-21T12:29:05;46.60;15.70
60909;DHT22;46780;48.128;-1.704;2023-08-21T12:31:31;45.60;16.60
60909;DHT22;46780;48.128;-1.704;2023-08-21T12:33:57;44.80;17.10
60909;DHT22;46780;48.128;-1.704;2023-08-21T12:36:24;44.70;17.60
60909;DHT22;46780;48.128;-1.704;2023-08-21T12:38:50;45.10;17.50
60909;DHT22;46780;48.128;-1.704;2023-08-21T12:41:17;45.50;17.20
60909;DHT22;46780;48.128;-1.704;2023-08-21T12:43:43;45.60;17.80
60909;DHT22;46780;48.128;-1.704;2023-08-21T12:46:11;45.50;17.10
60909;DHT22;46780;48.128;-1.704;2023-08-21T12:48:37;45.40;17.00
60909;DHT22;46780;48.128;-1.704;2023-08-21T12:51:04;45.40;16.80
60909;DHT22;46780;48.128;-1.704;2023-08-21T12:53:30;45.00;17.10
60909;DHT22;46780;48.128;-1.704;2023-08-21T12:55:56;45.10;17.30
60909;DHT22;46780;48.128;-1.704;2023-08-21T12:58:23;45.50;17.20
60909;DHT22;46780;48.128;-1.704;2023-08-21T13:00:50;45.40;17.20
60909;DHT22;46780;48.128;-1.704;2023-08-21T13:03:17;45.30;17.40
60909;DHT22;46780;48.128;-1.704;2023-08-21T13:05:44;45.10;17.40
60909;DHT22;46780;48.128;-1.704;2023-08-21T13:08:10;45.30;17.40
60909;DHT22;46780;48.128;-1.704;2023-08-21T13:10:37;45.10;17.10
60909;DHT22;46780;48.128;-1.704;2023-08-21T13:13:03;45.00;16.80
60909;DHT22;46780;48.128;-1.704;2023-08-21T13:15:30;45.70;16.50
60909;DHT22;46780;48.128;-1.704;2023-08-21T13:17:57;46.40;15.90
60909;DHT22;46780;48.128;-1.704;2023-08-21T13:20:25;46.80;15.70
60909;DHT22;46780;48.128;-1.704;2023-08-21T13:22:52;46.90;15.30
60909;DHT22;46780;48.128;-1.704;2023-08-21T13:25:19;46.70;15.30
60909;DHT22;46780;48.128;-1.704;2023-08-21T13:27:46;46.70;15.40
60909;DHT22;46780;48.128;-1.704;2023-08-21T13:30:13;46.30;15.30
60909;DHT22;46780;48.128;-1.704;2023-08-21T13:32:39;45.80;15.60
60909;DHT22;46780;48.128;-1.704;2023-08-21T13:35:06;45.00;16.40
60909;DHT22;46780;48.128;-1.704;2023-08-21T13:37:34;44.60;16.80
60909;DHT22;46780;48.128;-1.704;2023-08-21T13:40:01;43.80;17.30
60909;DHT22;46780;48.128;-1.704;2023-08-21T13:42:27;42.80;18.00
60909;DHT22;46780;48.128;-1.704;2023-08-21T13:44:54;41.40;18.50
60909;DHT22;46780;48.128;-1.704;2023-08-21T13:47:20;40.10;19.70
60909;DHT22;46780;48.128;-1.704;2023-08-21T13:49:47;39.00;20.90
60909;DHT22;46780;48.128;-1.704;2023-08-21T13:52:13;38.20;21.70
60909;DHT22;46780;48.128;-1.704;2023-08-21T13:54:41;37.50;22.50
60909;DHT22;46780;48.128;-1.704;2023-08-21T13:57:07;37.00;23.20
60909;DHT22;46780;48.128;-1.704;2023-08-21T13:59:34;36.40;23.90
60909;DHT22;46780;48.128;-1.704;2023-08-21T14:02:00;35.70;24.60
60909;DHT22;46780;48.128;-1.704;2023-08-21T14:04:27;35.10;25.40
60909;DHT22;46780;48.128;-1.704;2023-08-21T14:06:53;34.50;26.10
60909;DHT22;46780;48.128;-1.704;2023-08-21T14:09:19;34.30;26.60
60909;DHT22;46780;48.128;-1.704;2023-08-21T14:11:47;34.10;27.10
60909;DHT22;46780;48.128;-1.704;2023-08-21T14:14:14;33.90;27.40
60909;DHT22;46780;48.128;-1.704;2023-08-21T14:16:40;33.80;28.10
60909;DHT22;46780;48.128;-1.704;2023-08-21T14:19:07;33.60;28.30
60909;DHT22;46780;48.128;-1.704;2023-08-21T14:21:33;33.30;28.50
60909;DHT22;46780;48.128;-1.704;2023-08-21T14:23:59;33.00;28.90
60909;DHT22;46780;48.128;-1.704;2023-08-21T14:26:26;32.70;29.20
60909;DHT22;46780;48.128;-1.704;2023-08-21T14:28:54;32.30;29.50
60909;DHT22;46780;48.128;-1.704;2023-08-21T14:31:20;32.10;30.00
60909;DHT22;46780;48.128;-1.704;2023-08-21T14:33:47;31.80;30.20
60909;DHT22;46780;48.128;-1.704;2023-08-21T14:36:13;31.50;30.50
60909;DHT22;46780;48.128;-1.704;2023-08-21T14:38:39;31.50;30.60
60909;DHT22;46780;48.128;-1.704;2023-08-21T14:41:06;31.40;30.70
60909;DHT22;46780;48.128;-1.704;2023-08-21T14:43:32;31.20;31.10
60909;DHT22;46780;48.128;-1.704;2023-08-21T14:46:00;31.20;31.60
60909;DHT22;46780;48.128;-1.704;2023-08-21T14:48:26;31.10;31.60
60909;DHT22;46780;48.128;-1.704;2023-08-21T14:50:53;31.00;32.00
60909;DHT22;46780;48.128;-1.704;2023-08-21T14:53:19;31.00;32.50
60909;DHT22;46780;48.128;-1.704;2023-08-21T14:55:46;31.10;33.00
60909;DHT22;46780;48.128;-1.704;2023-08-21T14:58:12;31.00;32.80
60909;DHT22;46780;48.128;-1.704;2023-08-21T15:00:38;31.00;32.80
60909;DHT22;46780;48.128;-1.704;2023-08-21T15:03:06;30.90;32.80
60909;DHT22;46780;48.128;-1.704;2023-08-21T15:05:33;30.80;32.90
60909;DHT22;46780;48.128;-1.704;2023-08-21T15:07:59;30.80;32.80
60909;DHT22;46780;48.128;-1.704;2023-08-21T15:10:26;30.80;32.90
60909;DHT22;46780;48.128;-1.704;2023-08-21T15:12:52;30.80;33.10
60909;DHT22;46780;48.128;-1.704;2023-08-21T15:15:19;30.90;33.20